Time;durP1;ratioP1;P1;durP2;ratioP2;P2;SDS_P1;SDS_P2;PMS_P1;PMS_P2;Temp;Humidity;BMP_temperature;BMP_pressure;BME280_temperature;BME280_humidity;BME280_pressure;Samples;Min_cycle;Max_cycle;Signal;HPM_P1;HPM_P2
2024/02/25 00:02:12;;;;;;;;;;;;;;;4.25;78.80;97344.72;5036783;28;20573;-76
2024/02/25 00:04:53;;;;;;;15.43;10.50;;;;;;;4.30;78.23;97327.00;5049209;28;20012;-75
2024/02/25 00:07:28;;;;;;;20.58;15.07;;;;;;;4.45;78.70;97340.72;5037871;28;20504;-75
2024/02/25 00:09:58;;;;;;;25.10;16.48;;;;;;;4.42;78.23;97345.69;4998010;28;20026;-76
2024/02/25 00:12:24;;;;;;;19.15;14.98;;;;;;;4.36;78.67;97330.63;5018457;28;20505;-77
2024/02/25 00:14:50;;;;;;;21.58;15.43;;;;;;;4.22;78.18;97303.34;5013818;28;20064;-77
2024/02/25 00:17:15;;;;;;;19.83;14.60;;;;;;;4.28;78.09;97333.56;5016583;28;20037;-77
2024/02/25 00:19:40;;;;;;;17.42;13.50;;;;;;;4.10;78.01;97313.13;5016357;28;20048;-77
2024/02/25 00:22:12;;;;;;;13.88;11.35;;;;;;;4.26;78.29;97343.66;5019208;28;20100;-76
2024/02/25 00:25:25;;;;;;;11.15;9.20;;;;;;;4.13;78.76;97340.13;5012390;28;20089;-77
2024/02/25 00:27:53;;;;;;;8.40;7.50;;;;;;;4.11;79.29;97325.41;5029060;28;20033;-76
2024/02/25 00:30:18;;;;;;;8.43;6.25;;;;;;;4.14;79.28;97332.94;4999595;28;20026;-76
2024/02/25 00:32:43;;;;;;;5.50;4.97;;;;;;;4.17;78.95;97333.31;5013379;28;20080;-76
2024/02/25 00:35:09;;;;;;;6.53;5.30;;;;;;;4.13;79.60;97326.78;5042221;28;20029;-77
2024/02/25 00:37:34;;;;;;;8.30;6.88;;;;;;;4.04;79.29;97311.34;5037074;28;20029;-77
2024/02/25 00:40:00;;;;;;;6.28;5.53;;;;;;;4.15;79.96;97334.59;5047764;28;20025;-77
2024/02/25 00:42:25;;;;;;;6.32;5.60;;;;;;;4.15;79.77;97348.69;5040216;28;20041;-77
2024/02/25 00:44:50;;;;;;;6.72;5.38;;;;;;;4.01;79.41;97333.91;5002553;28;20022;-76
2024/02/25 00:47:16;;;;;;;5.47;4.53;;;;;;;4.01;79.63;97327.78;5024499;28;20037;-77
2024/02/25 00:49:42;;;;;;;6.93;5.03;;;;;;;4.00;79.31;97337.63;5028776;28;20032;-77
2024/02/25 00:52:07;;;;;;;6.97;5.65;;;;;;;4.05;79.62;97345.78;5040263;28;20489;-77
2024/02/25 00:54:32;;;;;;;13.52;9.85;;;;;;;3.84;79.53;97319.59;5026095;28;20087;-77
2024/02/25 00:56:58;;;;;;;13.55;9.75;;;;;;;3.99;79.33;97341.31;5032024;28;20041;-76
2024/02/25 00:59:23;;;;;;;15.85;10.68;;;;;;;3.90;80.00;97326.69;5015321;28;20025;-76
2024/02/25 01:01:50;;;;;;;17.65;12.55;;;;;;;3.80;79.55;97318.44;5032949;28;20393;-77
2024/02/25 01:04:18;;;;;;;12.43;9.73;;;;;;;3.84;79.89;97330.25;5056819;28;20037;-77
2024/02/25 01:06:43;;;;;;;9.63;7.07;;;;;;;3.79;79.92;97330.09;5002022;28;20180;-75
2024/02/25 01:09:10;;;;;;;6.93;6.00;;;;;;;3.76;80.21;97324.41;5040510;28;20112;-76
2024/02/25 01:11:36;;;;;;;6.15;5.60;;;;;;;3.80;79.92;97326.41;5023433;28;20102;-75
2024/02/25 01:14:02;;;;;;;6.93;5.43;;;;;;;3.72;79.68;97332.03;5031424;28;20025;-76
2024/02/25 01:16:27;;;;;;;6.05;5.55;;;;;;;3.54;80.40;97292.09;5011832;28;20180;-75
2024/02/25 01:18:52;;;;;;;5.30;4.53;;;;;;;3.58;79.79;97311.09;5047055;28;20085;-76
2024/02/25 01:21:18;;;;;;;5.65;5.15;;;;;;;3.59;80.51;97316.22;5031775;28;20482;-75
2024/02/25 01:23:43;;;;;;;4.65;4.25;;;;;;;3.60;80.76;97317.00;5025310;28;20240;-76
2024/02/25 01:26:10;;;;;;;5.43;4.93;;;;;;;3.59;80.57;97323.38;5033423;28;20532;-76
2024/02/25 01:28:36;;;;;;;5.38;4.88;;;;;;;3.67;79.79;97329.22;5025399;28;20496;-75
2024/02/25 01:31:01;;;;;;;4.68;4.30;;;;;;;3.62;80.50;97339.72;5015832;28;20030;-76
2024/02/25 01:33:27;;;;;;;5.93;5.32;;;;;;;3.49;80.44;97335.34;5027240;28;20030;-76
2024/02/25 01:35:52;;;;;;;5.93;5.25;;;;;;;3.53;80.23;97340.22;5029799;28;20401;-75
2024/02/25 01:38:18;;;;;;;6.07;5.50;;;;;;;3.51;80.19;97343.09;5031391;28;20029;-75
2024/02/25 01:40:43;;;;;;;5.40;5.00;;;;;;;3.49;80.67;97334.53;5015506;28;20095;-76
2024/02/25 01:43:10;;;;;;;4.53;4.13;;;;;;;3.40;80.98;97314.56;5009395;28;20025;-77
2024/02/25 01:45:36;;;;;;;5.60;5.10;;;;;;;3.43;80.49;97319.47;5011251;28;20497;-77
2024/02/25 01:48:05;;;;;;;6.15;5.38;;;;;;;3.40;80.49;97319.91;5031363;28;20029;-76
2024/02/25 01:50:32;;;;;;;5.40;4.90;;;;;;;3.23;80.98;97286.91;5012098;28;20034;-76
2024/02/25 01:52:57;;;;;;;5.03;4.63;;;;;;;3.34;80.99;97307.44;5048581;28;20056;-77
2024/02/25 01:55:23;;;;;;;5.88;5.38;;;;;;;3.27;80.47;97301.38;5009101;28;20445;-77
2024/02/25 01:57:48;;;;;;;6.35;5.78;;;;;;;3.23;81.05;97292.22;5024799;28;20504;-76
2024/02/25 02:00:54;;;;;;;5.32;4.80;;;;;;;3.36;81.08;97321.38;5025264;28;20116;-75
2024/02/25 02:03:25;;;;;;;6.53;5.93;;;;;;;3.35;81.14;97295.78;5034098;28;20069;-76
2024/02/25 02:05:51;;;;;;;7.13;6.38;;;;;;;3.35;81.05;97296.59;5037171;28;20458;-77
2024/02/25 02:08:17;;;;;;;5.90;5.40;;;;;;;3.35;81.48;97307.25;5023789;28;20200;-77
2024/02/25 02:10:42;;;;;;;6.65;6.05;;;;;;;3.36;81.58;97298.22;5019273;28;20037;-77
2024/02/25 02:13:08;;;;;;;7.05;6.45;;;;;;;3.18;81.95;97263.63;5012842;28;20026;-77
2024/02/25 02:15:39;;;;;;;6.20;5.60;;;;;;;3.42;82.04;97291.22;5019989;28;20045;-76
2024/02/25 02:18:06;;;;;;;7.22;6.55;;;;;;;3.45;82.09;97288.91;5029755;28;20041;-76
2024/02/25 02:20:32;;;;;;;5.90;5.40;;;;;;;3.42;81.54;97286.72;5012636;28;20071;-78
2024/02/25 02:22:58;;;;;;;5.55;5.07;;;;;;;3.49;81.66;97299.94;5015262;28;20033;-77
2024/02/25 02:25:23;;;;;;;6.50;5.90;;;;;;;3.38;81.76;97296.16;5009533;28;20385;-77
2024/02/25 02:27:56;;;;;;;5.03;4.63;;;;;;;3.48;81.60;97295.63;5036393;28;20504;-76
2024/02/25 02:30:23;;;;;;;6.03;5.50;;;;;;;3.34;81.53;97278.19;5038770;28;20049;-77
2024/02/25 02:32:48;;;;;;;5.07;4.68;;;;;;;3.41;81.37;97300.22;5019385;28;20061;-77
2024/02/25 02:35:16;;;;;;;5.60;5.13;;;;;;;3.40;81.47;97287.97;5021500;28;20044;-75
2024/02/25 02:37:41;;;;;;;7.03;5.28;;;;;;;3.27;81.71;97270.28;5050646;28;20025;-74
2024/02/25 02:40:07;;;;;;;4.72;4.35;;;;;;;3.30;81.19;97271.69;5013307;28;20096;-76
2024/02/25 02:42:33;;;;;;;6.93;5.30;;;;;;;3.27;81.58;97261.47;5046453;28;20033;-76
2024/02/25 02:45:00;;;;;;;4.90;4.50;;;;;;;3.34;82.01;97270.19;5019710;28;20034;-75
2024/02/25 02:47:37;;;;;;;6.32;5.70;;;;;;;3.30;82.43;97271.69;5019057;28;20478;-76
2024/02/25 02:50:06;;;;;;;5.75;5.15;;;;;;;3.27;82.08;97269.47;5053819;28;20085;-76
2024/02/25 02:52:40;;;;;;;5.10;4.70;;;;;;;3.29;82.24;97288.69;5037972;28;20489;-75
2024/02/25 02:55:06;;;;;;;6.60;6.00;;;;;;;3.07;82.73;97284.81;5021891;28;20098;-77
2024/02/25 02:57:32;;;;;;;6.82;6.22;;;;;;;2.85;83.06;97265.00;5031087;28;20088;-77
2024/02/25 03:00:13;;;;;;;5.88;5.20;;;;;;;3.05;82.43;97289.53;5019259;28;20029;-77
2024/02/25 03:02:43;;;;;;;5.18;4.72;;;;;;;3.01;82.78;97275.06;5025072;28;20030;-75
2024/02/25 03:05:09;;;;;;;6.18;5.18;;;;;;;3.07;83.22;97282.16;5035882;28;20034;-74
2024/02/25 03:07:37;;;;;;;6.20;5.70;;;;;;;3.05;82.93;97289.53;5042046;28;20053;-75
2024/02/25 03:10:06;;;;;;;6.80;6.18;;;;;;;2.84;82.35;97247.41;5010718;28;20517;-76
2024/02/25 03:12:32;;;;;;;6.43;5.82;;;;;;;2.94;82.85;97276.97;5053319;28;20029;-76
2024/02/25 03:14:59;;;;;;;5.35;4.90;;;;;;;2.99;82.84;97279.78;5035554;28;20060;-76
2024/02/25 03:17:24;;;;;;;5.20;4.80;;;;;;;2.85;82.62;97260.47;5009516;28;20045;-76
2024/02/25 03:19:49;;;;;;;5.20;4.70;;;;;;;2.61;82.31;97230.22;5016019;28;20575;-76
2024/02/25 03:22:19;;;;;;;5.25;4.78;;;;;;;2.98;82.78;97286.13;5034359;28;20037;-76
2024/02/25 03:24:48;;;;;;;5.35;4.88;;;;;;;2.70;82.13;97238.75;5017915;28;20037;-75
2024/02/25 03:27:14;;;;;;;5.97;5.38;;;;;;;2.88;82.63;97262.69;5039402;28;20032;-76
2024/02/25 03:29:40;;;;;;;5.13;4.72;;;;;;;2.65;82.64;97226.09;5057617;28;20025;-76
2024/02/25 03:32:06;;;;;;;5.53;4.82;;;;;;;2.97;83.21;97265.88;5024420;28;20025;-76
2024/02/25 03:34:31;;;;;;;5.25;4.75;;;;;;;2.70;83.09;97205.00;5037221;28;20098;-74
2024/02/25 03:36:57;;;;;;;5.53;4.78;;;;;;;3.09;84.00;97253.50;5028796;28;20048;-75
2024/02/25 03:39:22;;;;;;;5.20;4.80;;;;;;;3.16;83.71;97275.50;5008922;28;20038;-75
2024/02/25 03:41:47;;;;;;;5.25;4.80;;;;;;;3.15;84.07;97273.91;5017145;28;20112;-76
2024/02/25 03:44:13;;;;;;;5.43;4.93;;;;;;;2.91;84.11;97229.53;5017204;28;20043;-75
2024/02/25 03:46:42;;;;;;;4.40;4.10;;;;;;;3.11;83.82;97262.06;5033698;28;20048;-76
2024/02/25 03:49:11;;;;;;;5.65;5.07;;;;;;;3.25;84.05;97275.00;5049063;28;20037;-75
2024/02/25 03:51:44;;;;;;;6.85;6.25;;;;;;;3.16;83.46;97275.50;5026852;28;20089;-75
2024/02/25 03:54:09;;;;;;;8.43;7.15;;;;;;;2.91;83.10;97266.75;5049142;28;20470;-75
2024/02/25 03:56:35;;;;;;;6.38;5.72;;;;;;;2.84;82.95;97266.00;5034021;28;20024;-75
2024/02/25 03:59:00;;;;;;;5.13;4.60;;;;;;;2.67;82.97;97240.00;5025189;28;20382;-76
2024/02/25 04:01:25;;;;;;;5.13;4.63;;;;;;;2.82;82.40;97265.44;5033106;28;20610;-75
2024/02/25 04:03:51;;;;;;;5.97;5.38;;;;;;;2.69;83.09;97243.25;5032392;28;20476;-75
2024/02/25 04:06:16;;;;;;;6.05;5.45;;;;;;;2.57;82.92;97223.72;5032417;28;20036;-75
2024/02/25 04:08:44;;;;;;;5.93;5.20;;;;;;;2.87;83.31;97254.94;5034918;28;20112;-75
2024/02/25 04:11:11;;;;;;;6.03;5.43;;;;;;;2.84;83.71;97234.09;5022188;28;20036;-76
2024/02/25 04:13:36;;;;;;;6.30;5.80;;;;;;;2.88;83.00;97236.09;5051983;28;20040;-75
2024/02/25 04:16:02;;;;;;;5.85;5.35;;;;;;;2.91;84.08;97234.84;5015966;28;20033;-75
2024/02/25 04:18:27;;;;;;;6.35;5.75;;;;;;;2.92;83.74;97233.84;5028677;28;20091;-76
2024/02/25 04:20:58;;;;;;;6.40;5.63;;;;;;;3.05;84.52;97241.69;5016386;28;20055;-75
2024/02/25 04:23:37;;;;;;;6.72;6.00;;;;;;;3.10;84.17;97240.00;5035379;28;20037;-75
2024/02/25 04:26:07;;;;;;;5.72;5.22;;;;;;;3.02;84.06;97218.16;5015651;28;20034;-76
2024/02/25 04:28:35;;;;;;;6.80;6.10;;;;;;;3.08;83.92;97225.28;5037736;28;20033;-76
2024/02/25 04:31:00;;;;;;;6.00;5.43;;;;;;;3.07;84.01;97218.31;5050359;28;20030;-77
2024/02/25 04:33:25;;;;;;;5.35;4.93;;;;;;;3.11;84.02;97220.31;5032573;28;20040;-76
2024/02/25 04:35:51;;;;;;;5.93;5.28;;;;;;;3.04;84.42;97200.16;5032425;28;20021;-77
2024/02/25 04:38:17;;;;;;;5.90;5.35;;;;;;;3.03;84.03;97190.56;5032066;28;20081;-77
2024/02/25 04:40:47;;;;;;;6.30;5.35;;;;;;;3.25;84.85;97220.97;5050495;28;20104;-77
2024/02/25 04:43:24;;;;;;;5.80;5.30;;;;;;;3.19;84.04;97201.41;5040579;28;20041;-76
2024/02/25 04:45:57;;;;;;;4.82;4.43;;;;;;;3.25;84.06;97205.03;5010357;28;20037;-77
2024/02/25 04:48:25;;;;;;;5.15;4.75;;;;;;;3.17;84.47;97200.84;5017230;28;20102;-77
2024/02/25 04:50:54;;;;;;;5.40;4.90;;;;;;;3.22;84.33;97200.16;5023857;28;20543;-76
2024/02/25 04:53:24;;;;;;;5.05;4.55;;;;;;;3.12;84.52;97186.56;5016281;28;20064;-77
2024/02/25 04:55:50;;;;;;;5.18;4.68;;;;;;;3.30;84.16;97202.50;5018428;28;20065;-77
2024/02/25 04:58:16;;;;;;;5.13;4.63;;;;;;;3.17;84.38;97186.72;5016004;28;20405;-76
2024/02/25 05:04:05;;;;;;;6.72;4.88;;;;;;;3.42;84.39;97212.19;5024359;28;20040;-76
2024/02/25 05:06:31;;;;;;;5.05;4.53;;;;;;;3.43;83.46;97213.00;4998629;28;20441;-76
2024/02/25 05:08:56;;;;;;;5.32;4.90;;;;;;;3.42;83.55;97217.53;5032142;28;20025;-77
2024/02/25 05:11:22;;;;;;;5.63;4.97;;;;;;;3.34;84.28;97203.69;5019097;28;20405;-76
2024/02/25 05:17:25;;;;;;;5.85;5.25;;;;;;;3.14;83.49;97176.50;5051307;28;20401;-76
2024/02/25 05:20:22;;;;;;;6.82;6.22;;;;;;;3.19;83.92;97184.63;5040843;28;20047;-75
2024/02/25 05:23:32;;;;;;;16.02;13.35;;;;;;;3.37;82.97;97229.84;5048742;28;20053;-76
2024/02/25 05:25:58;;;;;;;7.72;6.70;;;;;;;3.15;82.72;97204.75;5031392;28;20103;-77
2024/02/25 05:28:23;;;;;;;6.20;5.60;;;;;;;3.21;82.44;97225.13;5042718;28;20104;-76
2024/02/25 05:30:49;;;;;;;4.88;4.43;;;;;;;3.14;82.34;97217.22;5030733;28;20029;-76
2024/02/25 05:33:15;;;;;;;4.82;4.43;;;;;;;3.06;82.58;97216.69;5025938;28;20039;-76
2024/02/25 05:35:41;;;;;;;4.60;4.20;;;;;;;2.99;82.31;97216.75;5013933;28;20033;-75
2024/02/25 05:38:07;;;;;;;4.13;3.83;;;;;;;2.84;82.22;97207.53;5022198;28;20159;-75
2024/02/25 05:40:32;;;;;;;4.32;3.97;;;;;;;2.89;82.04;97220.97;5030556;28;20128;-76
2024/02/25 05:42:57;;;;;;;4.22;3.83;;;;;;;2.83;81.61;97222.66;5025043;28;20112;-75
2024/02/25 05:45:23;;;;;;;3.97;3.65;;;;;;;2.79;81.99;97226.78;5022457;28;20037;-75
2024/02/25 05:47:48;;;;;;;4.35;3.95;;;;;;;2.77;82.36;97228.84;5006020;28;20132;-76
2024/02/25 05:50:15;;;;;;;4.25;3.95;;;;;;;2.76;82.06;97220.06;5049315;28;20156;-76
2024/02/25 05:52:57;;;;;;;4.32;4.03;;;;;;;2.70;82.02;97218.28;5027313;28;20109;-74
2024/02/25 05:55:24;;;;;;;3.95;3.65;;;;;;;2.59;82.67;97203.03;5021366;28;20037;-75
2024/02/25 05:57:54;;;;;;;4.43;4.10;;;;;;;2.21;82.35;97143.94;5054480;28;20041;-75
2024/02/25 06:00:27;;;;;;;4.45;4.05;;;;;;;2.48;82.60;97179.84;5038391;28;20137;-76
2024/02/25 06:02:53;;;;;;;4.43;4.03;;;;;;;2.32;83.01;97161.00;5033792;28;20042;-77
2024/02/25 06:05:21;;;;;;;5.13;4.60;;;;;;;2.67;83.91;97197.47;5040755;28;20440;-76
2024/02/25 06:08:13;;;;;;;5.22;4.40;;;;;;;2.61;83.92;97166.44;5034351;28;20045;-76
2024/02/25 06:10:44;;;;;;;5.30;4.80;;;;;;;3.02;83.44;97221.66;5025339;28;20049;-75
2024/02/25 06:13:19;;;;;;;4.60;4.18;;;;;;;3.10;83.75;97221.38;5046007;28;20044;-76
2024/02/25 06:15:51;;;;;;;4.57;4.20;;;;;;;2.74;84.22;97161.00;5041267;28;20060;-76
2024/02/25 06:18:23;;;;;;;4.93;4.43;;;;;;;3.15;84.08;97216.19;5046309;28;20043;-76
2024/02/25 06:21:09;;;;;;;4.95;4.50;;;;;;;3.13;84.30;97209.44;5046797;28;20056;-76
2024/02/25 06:23:35;;;;;;;5.40;4.80;;;;;;;3.23;84.19;97212.41;5016545;28;20038;-76
2024/02/25 06:26:00;;;;;;;4.78;4.38;;;;;;;3.08;83.46;97182.72;5018917;28;20029;-76
2024/02/25 06:28:27;;;;;;;5.30;4.80;;;;;;;2.94;84.06;97159.97;5045151;28;20037;-76
2024/02/25 06:30:52;;;;;;;6.13;5.63;;;;;;;3.36;83.56;97213.06;5032859;28;20033;-77
2024/02/25 06:33:17;;;;;;;6.97;6.28;;;;;;;3.43;83.47;97223.66;5059825;28;20048;-77
2024/02/25 06:35:43;;;;;;;7.75;6.97;;;;;;;3.28;82.67;97188.63;4993589;28;20026;-76
2024/02/25 06:38:08;;;;;;;7.15;6.55;;;;;;;3.46;82.56;97224.00;5003457;28;20042;-76
2024/02/25 06:40:34;;;;;;;9.40;8.60;;;;;;;3.52;82.51;97222.31;5056562;28;20022;-76
2024/02/25 06:42:59;;;;;;;7.20;6.50;;;;;;;3.60;82.49;97231.81;5041658;28;20045;-76
2024/02/25 06:45:24;;;;;;;5.60;5.10;;;;;;;3.29;82.48;97184.94;5051411;28;20044;-76
2024/02/25 06:47:50;;;;;;;6.90;5.13;;;;;;;3.55;82.23;97227.16;5040860;28;20397;-76
2024/02/25 06:50:15;;;;;;;5.97;5.47;;;;;;;3.60;82.07;97229.97;5001149;28;20030;-77
2024/02/25 06:52:41;;;;;;;6.88;6.28;;;;;;;3.70;81.78;97246.25;5049522;28;20033;-76
2024/02/25 06:55:07;;;;;;;7.53;6.82;;;;;;;3.59;82.37;97220.38;5036081;28;20030;-76
2024/02/25 06:57:32;;;;;;;7.10;6.50;;;;;;;3.69;81.86;97215.31;5028981;28;20083;-76
2024/02/25 06:59:59;;;;;;;6.63;6.03;;;;;;;3.73;81.39;97219.19;5027429;28;20018;-76
2024/02/25 07:02:24;;;;;;;6.97;6.28;;;;;;;3.84;81.50;97221.06;5019880;28;20052;-76
2024/02/25 07:04:49;;;;;;;7.78;7.00;;;;;;;3.81;81.86;97213.53;5050194;28;20443;-76
2024/02/25 07:07:15;;;;;;;7.15;6.45;;;;;;;3.77;81.29;97199.03;5033296;28;20087;-76
2024/02/25 07:09:41;;;;;;;9.35;6.40;;;;;;;3.92;81.41;97214.63;5016702;28;20022;-76
2024/02/25 07:12:07;;;;;;;7.70;7.00;;;;;;;3.95;80.72;97211.47;5033084;28;20056;-76
2024/02/25 07:14:33;;;;;;;10.73;8.85;;;;;;;4.14;81.33;97227.19;5033757;28;20048;-76
2024/02/25 07:16:58;;;;;;;8.55;7.75;;;;;;;4.08;81.32;97214.75;5034605;28;20061;-77
2024/02/25 07:19:24;;;;;;;8.40;7.60;;;;;;;4.12;80.92;97213.28;5033048;28;20026;-77
2024/02/25 07:21:49;;;;;;;10.80;9.75;;;;;;;4.31;81.12;97221.22;5035144;28;20041;-77
2024/02/25 07:24:15;;;;;;;8.10;7.15;;;;;;;4.48;80.44;97232.84;5025346;28;20029;-76
2024/02/25 07:26:40;;;;;;;8.88;8.00;;;;;;;4.47;80.30;97225.88;5024903;28;20124;-77
2024/02/25 07:29:05;;;;;;;7.05;6.35;;;;;;;4.50;80.24;97225.41;5016106;28;20045;-77
2024/02/25 07:31:31;;;;;;;5.78;5.28;;;;;;;4.48;80.01;97211.50;5032945;28;20383;-76
2024/02/25 07:33:56;;;;;;;6.10;5.15;;;;;;;4.59;79.94;97218.72;5032819;28;20120;-77
2024/02/25 07:36:21;;;;;;;5.65;5.15;;;;;;;4.67;78.76;97205.03;5029386;28;20498;-77
2024/02/25 07:38:48;;;;;;;6.15;5.28;;;;;;;4.59;78.84;97197.38;5015969;28;20036;-77
2024/02/25 07:41:13;;;;;;;6.03;5.40;;;;;;;4.74;79.34;97216.38;5022603;28;20486;-77
2024/02/25 07:43:39;;;;;;;7.22;5.30;;;;;;;4.92;78.48;97229.63;5016134;28;20021;-77
2024/02/25 07:46:05;;;;;;;5.93;5.32;;;;;;;4.97;78.77;97218.25;5024555;28;20033;-77
2024/02/25 07:48:30;;;;;;;5.35;4.93;;;;;;;4.92;78.38;97204.81;5016005;28;20497;-77
2024/02/25 07:50:56;;;;;;;6.07;5.38;;;;;;;4.96;78.56;97200.63;5042839;28;20038;-77
2024/02/25 07:53:22;;;;;;;6.70;5.35;;;;;;;5.19;78.12;97217.41;5018598;28;20026;-78
2024/02/25 07:55:47;;;;;;;6.57;5.85;;;;;;;5.16;77.79;97204.53;5024759;28;20585;-77
2024/02/25 07:58:13;;;;;;;7.70;6.78;;;;;;;5.15;77.68;97199.44;5040777;28;20029;-77
2024/02/25 08:00:38;;;;;;;7.35;6.65;;;;;;;5.30;77.31;97205.91;5014348;28;20453;-77
2024/02/25 08:03:13;;;;;;;9.02;8.13;;;;;;;5.44;77.46;97217.94;5017789;28;20041;-77
2024/02/25 08:05:38;;;;;;;9.47;8.47;;;;;;;5.52;77.10;97220.25;5049956;28;20493;-77
2024/02/25 08:08:04;;;;;;;6.70;6.10;;;;;;;5.50;76.01;97203.69;5015736;28;20032;-77
2024/02/25 08:10:30;;;;;;;6.32;5.60;;;;;;;5.46;76.46;97213.19;5044600;28;20029;-77
2024/02/25 08:12:57;;;;;;;6.20;5.60;;;;;;;5.51;76.92;97215.97;5048903;28;20029;-77
2024/02/25 08:15:22;;;;;;;6.45;5.65;;;;;;;5.52;76.67;97198.91;5063422;28;20044;-77
2024/02/25 08:17:48;;;;;;;6.50;5.90;;;;;;;5.67;75.77;97210.94;5032335;28;20053;-77
2024/02/25 08:20:13;;;;;;;7.47;6.72;;;;;;;5.66;76.08;97199.44;5032299;28;20045;-77
2024/02/25 08:22:38;;;;;;;18.42;16.00;;;;;;;5.64;76.69;97195.38;5032244;28;20033;-77
2024/02/25 08:25:05;;;;;;;7.25;6.10;;;;;;;5.74;76.41;97216.94;5015130;28;20045;-77
2024/02/25 08:27:32;;;;;;;12.80;9.43;;;;;;;5.48;76.50;97181.72;5012678;28;20033;-77
2024/02/25 08:30:01;;;;;;;10.30;8.00;;;;;;;5.82;76.05;97219.22;5012734;28;21431;-77
2024/02/25 08:32:27;;;;;;;9.02;6.75;;;;;;;5.81;76.03;97202.38;5026508;28;20135;-77
2024/02/25 08:34:55;;;;;;;6.40;5.65;;;;;;;5.89;75.33;97198.56;5023504;28;20489;-77
2024/02/25 08:37:24;;;;;;;5.97;5.30;;;;;;;5.93;75.14;97202.38;5012676;28;20025;-76
2024/02/25 08:40:11;;;;;;;;;;;;;;;;;;;;;
2024/02/25 08:42:42;;;;;;;5.90;5.30;;;;;;;6.05;75.78;97205.81;5046857;28;20087;-77
2024/02/25 08:45:08;;;;;;;5.95;5.35;;;;;;;6.10;75.35;97206.72;5032187;28;20056;-77
2024/02/25 08:47:33;;;;;;;6.05;5.50;;;;;;;6.13;74.47;97205.44;5040854;28;20033;-76
2024/02/25 08:49:59;;;;;;;5.55;4.97;;;;;;;6.24;74.67;97207.22;5031860;28;20141;-77
2024/02/25 08:52:24;;;;;;;6.53;5.93;;;;;;;6.30;74.50;97197.44;5021538;28;20059;-77
2024/02/25 08:54:49;;;;;;;6.30;5.15;;;;;;;6.46;74.35;97210.81;5024866;28;20096;-76
2024/02/25 08:57:20;;;;;;;7.10;5.30;;;;;;;6.45;74.25;97211.84;5034056;28;20065;-77
2024/02/25 08:59:46;;;;;;;7.40;5.90;;;;;;;6.45;73.22;97197.66;5037695;28;20425;-76
2024/02/25 09:02:11;;;;;;;6.40;5.80;;;;;;;6.58;74.10;97216.88;5033352;28;20021;-76
2024/02/25 09:04:37;;;;;;;6.60;6.00;;;;;;;6.56;73.62;97205.63;5017542;28;20072;-76
2024/02/25 09:07:03;;;;;;;7.28;6.00;;;;;;;6.38;73.86;97165.75;5008479;28;20448;-76
2024/02/25 09:09:34;;;;;;;6.07;5.53;;;;;;;6.55;73.33;97187.97;5016555;28;20069;-77
2024/02/25 09:12:00;;;;;;;6.60;6.00;;;;;;;6.64;73.41;97191.84;5019073;28;20037;-77
2024/02/25 09:14:27;;;;;;;7.40;5.50;;;;;;;6.77;73.68;97207.56;5014759;28;20034;-77
2024/02/25 09:17:11;;;;;;;5.55;4.88;;;;;;;6.90;73.80;97209.91;5047752;28;20060;-77
2024/02/25 09:19:36;;;;;;;5.90;5.40;;;;;;;6.96;73.11;97190.19;5039074;28;20061;-78
2024/02/25 09:22:02;;;;;;;4.90;4.40;;;;;;;6.98;72.56;97190.75;5015733;28;20067;-77
2024/02/25 09:24:27;;;;;;;5.20;4.70;;;;;;;7.14;72.67;97194.44;5016859;28;20041;-77
2024/02/25 09:26:53;;;;;;;4.90;4.50;;;;;;;7.16;71.46;97184.31;5031566;28;20096;-77
2024/02/25 09:29:20;;;;;;;7.03;6.32;;;;;;;7.35;71.98;97198.22;5010933;28;20042;-77
2024/02/25 09:31:45;;;;;;;4.95;4.18;;;;;;;7.35;71.35;97182.16;5028884;28;20025;-78
2024/02/25 09:34:11;;;;;;;5.00;4.35;;;;;;;7.47;71.59;97190.84;5022646;28;20041;-77
2024/02/25 09:36:37;;;;;;;4.40;4.00;;;;;;;7.62;70.99;97193.72;5009336;28;20025;-77
2024/02/25 09:39:03;;;;;;;4.78;4.35;;;;;;;7.70;70.27;97184.44;5030532;28;20044;-77
2024/02/25 09:41:33;;;;;;;7.88;4.38;;;;;;;7.84;70.25;97202.56;5031148;28;20512;-78
2024/02/25 09:44:01;;;;;;;4.40;2.90;;;;;;;7.90;69.03;97153.31;5006655;28;20128;-78
2024/02/25 09:46:26;;;;;;;2.78;2.42;;;;;;;8.07;67.00;97180.84;5027972;28;20029;-79
2024/02/25 09:48:54;;;;;;;3.30;2.38;;;;;;;8.21;66.66;97182.03;5028833;28;20060;-78
2024/02/25 09:51:23;;;;;;;2.55;2.25;;;;;;;8.51;65.10;97183.41;5047315;28;20029;-78
2024/02/25 09:53:53;;;;;;;3.30;2.47;;;;;;;8.59;64.86;97178.38;4994616;28;20096;-78
2024/02/25 09:56:22;;;;;;;4.53;2.78;;;;;;;8.66;64.79;97181.63;5007992;28;20037;-79
2024/02/25 09:58:48;;;;;;;2.10;1.90;;;;;;;8.82;64.05;97182.59;5005739;28;20032;-79
2024/02/25 10:01:16;;;;;;;1.92;1.67;;;;;;;8.71;61.81;97170.13;5047536;28;20029;-78
2024/02/25 10:03:42;;;;;;;2.13;1.55;;;;;;;9.04;61.34;97173.31;5022203;28;20120;-79
2024/02/25 10:06:08;;;;;;;1.90;1.67;;;;;;;8.83;60.73;97168.06;5031112;28;20189;-79
2024/02/25 10:08:53;;;;;;;2.15;1.73;;;;;;;9.08;60.59;97170.91;5024264;28;20024;-78
2024/02/25 10:11:19;;;;;;;1.70;1.60;;;;;;;9.33;59.79;97183.69;5030730;28;20406;-78
2024/02/25 10:13:46;;;;;;;1.98;1.65;;;;;;;9.33;61.14;97186.38;5035736;28;20028;-79
2024/02/25 10:16:18;;;;;;;1.98;1.77;;;;;;;9.43;61.48;97186.41;5047961;28;20033;-78
2024/02/25 10:18:44;;;;;;;2.45;1.40;;;;;;;9.34;58.87;97180.72;5016132;28;20477;-78
2024/02/25 10:21:10;;;;;;;2.80;1.58;;;;;;;9.41;58.03;97188.56;5015899;28;20029;-78
2024/02/25 10:23:35;;;;;;;1.77;1.40;;;;;;;9.05;57.57;97156.13;5028212;28;20025;-78
2024/02/25 10:26:23;;;;;;;1.40;1.30;;;;;;;9.42;57.23;97177.56;5049217;28;20034;-77
2024/02/25 10:29:01;;;;;;;1.63;1.50;;;;;;;9.64;56.45;97169.31;5033577;28;20038;-78
2024/02/25 10:31:27;;;;;;;2.50;1.90;;;;;;;9.51;57.35;97170.63;5029411;28;20034;-78
2024/02/25 10:33:56;;;;;;;1.77;1.67;;;;;;;9.52;58.17;97172.22;5015981;28;20028;-78
2024/02/25 10:36:25;;;;;;;1.98;1.77;;;;;;;9.62;58.38;97171.44;5019513;28;20045;-78
2024/02/25 10:38:55;;;;;;;1.60;1.50;;;;;;;9.55;58.13;97168.19;5015365;28;20132;-78
2024/02/25 10:41:21;;;;;;;1.67;1.52;;;;;;;9.63;57.80;97163.13;5046597;28;20069;-77
2024/02/25 10:43:50;;;;;;;1.60;1.50;;;;;;;9.56;57.88;97162.56;5033279;28;20099;-77
2024/02/25 10:46:27;;;;;;;1.60;1.50;;;;;;;9.47;57.47;97158.78;5050920;28;20041;-78
2024/02/25 10:48:53;;;;;;;2.08;1.77;;;;;;;9.35;56.72;97160.88;5033052;28;20041;-78
2024/02/25 10:51:18;;;;;;;1.60;1.50;;;;;;;9.11;58.38;97148.09;5017874;28;20030;-78
2024/02/25 10:53:44;;;;;;;1.75;1.63;;;;;;;9.18;58.04;97138.75;5020823;28;20072;-77
2024/02/25 10:56:15;;;;;;;2.22;1.80;;;;;;;9.18;58.88;97176.34;5030761;28;20026;-77
2024/02/25 10:58:41;;;;;;;2.45;1.95;;;;;;;9.03;58.60;97157.47;5052582;28;20064;-78
2024/02/25 11:01:08;;;;;;;1.70;1.60;;;;;;;8.92;59.35;97147.72;5020004;28;20025;-78
2024/02/25 11:03:33;;;;;;;2.92;1.73;;;;;;;8.82;59.38;97143.09;5027128;28;20033;-77
2024/02/25 11:06:01;;;;;;;2.38;2.00;;;;;;;8.75;59.63;97126.41;5012621;28;20032;-77
2024/02/25 11:08:41;;;;;;;2.42;2.00;;;;;;;8.86;58.46;97130.81;5009650;28;20030;-78
2024/02/25 11:11:10;;;;;;;4.85;1.95;;;;;;;9.15;59.09;97150.00;5004403;28;20033;-77
2024/02/25 11:13:41;;;;;;;2.10;1.60;;;;;;;9.25;59.33;97152.75;5015541;28;20029;-76
2024/02/25 11:16:07;;;;;;;1.85;1.50;;;;;;;9.32;58.74;97134.53;5038182;28;20029;-76
2024/02/25 11:18:32;;;;;;;1.80;1.52;;;;;;;9.37;59.23;97137.22;5021906;28;20040;-76
2024/02/25 11:21:07;;;;;;;2.63;2.10;;;;;;;9.35;58.92;97125.13;5033088;28;20558;-76
2024/02/25 11:23:40;;;;;;;5.25;1.92;;;;;;;9.43;59.20;97120.03;5046470;28;20447;-77
2024/02/25 11:26:35;;;;;;;2.88;2.10;;;;;;;9.58;58.79;97144.31;5033962;28;20542;-77
2024/02/25 11:29:17;;;;;;;1.40;1.30;;;;;;;9.75;58.49;97139.50;5048681;28;20043;-76
2024/02/25 11:31:50;;;;;;;3.00;1.35;;;;;;;9.92;56.37;97141.19;5028258;28;20482;-76
2024/02/25 11:34:26;;;;;;;2.58;1.30;;;;;;;9.82;55.71;97133.09;5016799;28;20037;-77
2024/02/25 11:36:56;;;;;;;1.77;1.40;;;;;;;9.91;54.82;97121.53;5033195;28;20163;-77
2024/02/25 11:39:26;;;;;;;1.15;0.90;;;;;;;9.97;54.88;97130.41;5024693;28;20038;-77
2024/02/25 11:41:57;;;;;;;1.10;1.00;;;;;;;9.94;54.35;97109.44;5012677;28;20037;-77
2024/02/25 11:44:27;;;;;;;1.20;1.10;;;;;;;10.34;53.83;97114.88;5016546;28;20037;-77
2024/02/25 11:47:03;;;;;;;1.33;1.20;;;;;;;9.98;54.29;97095.19;5033057;28;20026;-76
2024/02/25 11:49:29;;;;;;;1.42;1.20;;;;;;;10.10;53.65;97124.53;5032730;28;20033;-76
2024/02/25 11:51:59;;;;;;;1.20;1.10;;;;;;;10.36;53.94;97112.75;5016268;28;20020;-75
2024/02/25 11:54:30;;;;;;;1.75;1.10;;;;;;;10.35;53.33;97084.19;5016084;28;20071;-76